createdAt,value
2018-06-03T00:01:23.222Z,5.60
2018-06-03T00:06:27.089Z,6.40
2018-06-03T00:11:30.179Z,5.82
2018-06-03T00:16:34.051Z,6.33
2018-06-03T00:21:44.277Z,7.83
2018-06-03T00:26:47.368Z,6.27
2018-06-03T00:31:51.785Z,6.87
2018-06-03T00:36:55.632Z,7.17
2018-06-03T00:41:59.125Z,7.30
2018-06-03T00:47:02.979Z,6.50
2018-06-03T00:52:06.852Z,9.47
2018-06-03T00:57:09.957Z,6.60
2018-06-03T01:02:13.450Z,6.07
2018-06-03T01:07:16.533Z,5.47
2018-06-03T01:12:20.959Z,6.13
2018-06-03T01:17:24.117Z,6.30
2018-06-03T01:22:27.219Z,6.97
2018-06-03T01:27:30.329Z,6.10
2018-06-03T01:32:33.413Z,6.27
2018-06-03T01:37:36.494Z,7.03
2018-06-03T01:42:40.718Z,5.93
2018-06-03T01:47:43.814Z,6.80
2018-06-03T01:52:47.127Z,7.30
2018-06-03T01:57:50.213Z,6.57
2018-06-03T02:02:54.058Z,6.40
2018-06-03T02:07:57.142Z,6.37
2018-06-03T02:13:01.363Z,6.63
2018-06-03T02:18:04.447Z,6.78
2018-06-03T02:23:08.304Z,6.03
2018-06-03T02:28:12.154Z,6.40
2018-06-03T02:33:16.591Z,6.30
2018-06-03T02:38:19.679Z,6.83
2018-06-03T02:43:23.528Z,7.10
2018-06-03T02:48:26.612Z,5.83
2018-06-03T02:53:31.202Z,10.83
2018-06-03T02:58:34.700Z,6.17
2018-06-03T03:03:37.782Z,6.77
2018-06-03T03:08:40.898Z,6.53
2018-06-03T03:13:43.985Z,6.20
2018-06-03T03:18:47.068Z,7.07
2018-06-03T03:23:51.279Z,6.37
2018-06-03T03:28:55.706Z,7.70
2018-06-03T03:33:59.545Z,6.10
2018-06-03T03:39:03.039Z,6.87
2018-06-03T03:44:07.266Z,6.73
2018-06-03T03:49:11.120Z,6.93
2018-06-03T03:54:15.330Z,9.00
2018-06-03T03:59:19.915Z,7.43
2018-06-03T04:04:22.989Z,7.60
2018-06-03T04:09:26.074Z,7.90
2018-06-03T04:14:29.150Z,10.17
2018-06-03T04:19:33.586Z,8.70
2018-06-03T04:24:38.186Z,10.07
2018-06-03T04:29:41.280Z,8.77
2018-06-03T04:34:45.709Z,10.37
2018-06-03T04:39:50.308Z,10.83
2018-06-03T04:44:54.555Z,13.03
2018-06-03T04:49:57.654Z,11.77
2018-06-03T04:55:02.347Z,12.07
2018-06-03T05:00:06.721Z,13.17
2018-06-03T05:05:09.810Z,10.87
2018-06-03T05:10:14.046Z,9.67
2018-06-03T05:15:17.150Z,10.00
2018-06-03T05:20:20.242Z,10.33
2018-06-03T05:25:24.092Z,11.13
2018-06-03T05:30:27.571Z,11.07
2018-06-03T05:35:32.179Z,10.70
2018-06-03T05:40:36.617Z,10.43
2018-06-03T05:45:40.125Z,10.40
2018-06-03T05:50:43.607Z,11.33
2018-06-03T05:55:46.693Z,9.97
2018-06-03T06:00:51.297Z,11.30
2018-06-03T06:05:55.154Z,10.80
2018-06-03T06:10:59.586Z,10.53
2018-06-03T06:16:03.087Z,10.23
2018-06-03T06:21:07.672Z,13.07
2018-06-03T06:26:11.529Z,12.00
2018-06-03T06:31:14.606Z,14.97
2018-06-03T06:36:18.485Z,14.95
2018-06-03T06:41:22.713Z,15.33
2018-06-03T06:46:26.573Z,16.67
2018-06-03T06:51:30.435Z,14.20
2018-06-03T06:56:33.919Z,14.80
2018-06-03T07:01:37.411Z,12.27
2018-06-03T07:06:40.935Z,13.53
2018-06-03T07:11:45.491Z,15.57
2018-06-03T07:16:48.585Z,14.80
2018-06-03T07:21:52.426Z,16.80
2018-06-03T07:26:56.288Z,16.90
2018-06-03T07:31:59.804Z,23.27
2018-06-03T07:37:04.215Z,13.43
2018-06-03T07:42:07.294Z,18.40
2018-06-03T07:47:10.778Z,19.07
2018-06-03T07:52:15.233Z,21.47
2018-06-03T07:57:19.690Z,26.10
2018-06-03T08:02:23.887Z,26.07
2018-06-03T08:07:28.320Z,26.30
2018-06-03T08:12:31.399Z,29.40
2018-06-03T08:17:34.486Z,23.87
2018-06-03T08:22:37.970Z,24.10
2018-06-03T08:27:41.818Z,25.60
2018-06-03T08:32:45.319Z,21.87
2018-06-03T08:37:49.749Z,21.13
2018-06-03T08:42:53.978Z,18.90
2018-06-03T08:47:57.067Z,15.30
2018-06-03T08:53:01.507Z,17.03
2018-06-03T08:58:04.591Z,18.27
2018-06-03T09:03:07.670Z,15.13
2018-06-03T09:08:12.109Z,11.90
2018-06-03T09:13:15.960Z,13.20
2018-06-03T09:18:20.409Z,13.30
2018-06-03T09:23:24.865Z,11.60
2018-06-03T09:28:27.966Z,11.03
2018-06-03T09:33:31.056Z,11.73
2018-06-03T09:38:34.909Z,13.83
2018-06-03T09:43:38.387Z,11.07
2018-06-03T09:48:42.231Z,10.80
2018-06-03T09:53:45.318Z,12.10
2018-06-03T09:58:49.170Z,13.00
2018-06-03T10:03:52.259Z,11.90
2018-06-03T10:08:56.691Z,14.10
2018-06-03T10:14:00.540Z,10.77
2018-06-03T10:19:04.395Z,12.13
2018-06-03T10:24:08.826Z,13.17
2018-06-03T10:29:12.714Z,9.95
2018-06-03T10:34:16.934Z,10.03
2018-06-03T10:39:20.039Z,12.00
2018-06-03T10:44:24.467Z,10.40
2018-06-03T10:49:28.888Z,10.07
2018-06-03T10:54:32.383Z,10.00
2018-06-03T10:59:35.447Z,9.70
2018-06-03T11:04:39.664Z,9.97
2018-06-03T11:09:44.646Z,10.80
2018-06-03T11:14:49.083Z,10.03
2018-06-03T11:19:52.935Z,9.80
2018-06-03T11:24:57.146Z,11.07
2018-06-03T11:30:01.379Z,11.13
2018-06-03T11:35:04.466Z,10.60
2018-06-03T11:40:09.063Z,10.17
2018-06-03T11:45:13.514Z,8.80
2018-06-03T11:50:18.103Z,9.63
2018-06-03T11:55:22.693Z,8.00
2018-06-03T12:00:25.771Z,9.67
2018-06-03T12:05:28.846Z,8.20
2018-06-03T12:10:32.332Z,9.87
2018-06-03T12:15:35.411Z,9.73
2018-06-03T12:20:39.257Z,10.80
2018-06-03T12:25:42.733Z,8.90
2018-06-03T12:30:45.813Z,8.93
2018-06-03T12:35:50.250Z,10.13
2018-06-03T12:40:54.834Z,10.10
2018-06-03T12:45:57.925Z,10.57
2018-06-03T12:51:01.804Z,10.90
2018-06-03T12:56:04.874Z,10.70
2018-06-03T13:01:09.313Z,12.63
2018-06-03T13:06:13.162Z,12.83
2018-06-03T13:11:52.654Z,12.17
2018-06-03T13:16:56.459Z,12.07
2018-06-03T13:22:00.285Z,11.93
2018-06-03T13:27:04.125Z,11.50
2018-06-03T13:32:07.938Z,10.63
2018-06-03T13:37:11.780Z,11.60
2018-06-03T13:42:15.572Z,10.93
2018-06-03T13:47:19.378Z,12.40
2018-06-03T13:52:23.249Z,12.10
2018-06-03T13:57:27.282Z,11.97
2018-06-03T14:02:31.073Z,12.53
2018-06-03T14:07:35.108Z,12.33
2018-06-03T14:12:39.204Z,12.10
2018-06-03T14:17:43.002Z,13.30
2018-06-03T14:22:46.793Z,12.30
2018-06-03T14:27:50.594Z,12.70
2018-06-03T14:32:54.378Z,12.80
2018-06-03T14:37:58.415Z,12.23
2018-06-03T14:43:02.261Z,12.60
2018-06-03T14:48:06.468Z,12.47
2018-06-03T14:53:10.392Z,12.00
2018-06-03T14:58:14.526Z,12.17
2018-06-03T15:03:18.314Z,12.27
2018-06-03T15:08:22.137Z,11.43
2018-06-03T15:13:25.969Z,13.23
2018-06-03T15:18:29.789Z,12.57
2018-06-03T15:23:33.641Z,12.83
2018-06-03T15:28:37.473Z,13.27
2018-06-03T15:33:41.317Z,13.67
2018-06-03T15:38:45.150Z,12.40
2018-06-03T15:43:49.024Z,12.10
2018-06-03T15:48:52.801Z,11.73
2018-06-03T15:53:56.647Z,12.63
2018-06-03T15:59:00.474Z,12.23
2018-06-03T16:04:04.303Z,12.17
2018-06-03T16:09:08.162Z,11.97
2018-06-03T16:14:11.985Z,11.20
2018-06-03T16:19:16.142Z,10.27
2018-06-03T16:24:20.274Z,11.67
2018-06-03T16:29:24.295Z,11.60
2018-06-03T16:34:28.359Z,12.53
2018-06-03T16:39:32.466Z,13.80
2018-06-03T16:44:36.294Z,13.70
2018-06-03T16:49:40.120Z,14.57
2018-06-03T16:54:43.961Z,14.30
2018-06-03T16:59:47.790Z,13.67
2018-06-03T17:04:51.605Z,14.20
2018-06-03T17:09:55.431Z,13.77
2018-06-03T17:14:59.498Z,15.07
2018-06-03T17:20:03.364Z,14.77
2018-06-03T17:25:07.950Z,15.15
2018-06-03T17:30:11.774Z,15.83
2018-06-03T17:35:15.867Z,16.35
2018-06-03T17:40:20.037Z,15.70
2018-06-03T17:45:23.809Z,16.60
2018-06-03T17:50:28.439Z,14.90
2018-06-03T17:55:32.252Z,15.73
2018-06-03T18:00:36.090Z,16.37
2018-06-03T18:05:39.930Z,15.57
2018-06-03T18:10:43.706Z,16.23
2018-06-03T18:15:47.751Z,16.80
2018-06-03T18:20:51.561Z,16.23
2018-06-03T18:25:55.690Z,17.03
2018-06-03T18:30:59.484Z,17.37
2018-06-03T18:36:03.528Z,16.20
2018-06-03T18:41:07.404Z,16.77
2018-06-03T18:46:11.190Z,16.70
2018-06-03T18:51:15.005Z,17.77
2018-06-03T18:56:19.141Z,18.73
2018-06-03T19:01:22.953Z,17.03
2018-06-03T19:06:26.757Z,18.00
2018-06-03T19:11:30.543Z,18.90
2018-06-03T19:16:34.324Z,18.83
2018-06-03T19:21:38.256Z,19.17
2018-06-03T19:26:42.051Z,19.13
2018-06-03T19:31:45.858Z,19.63
2018-06-03T19:36:49.656Z,19.50
2018-06-03T19:41:53.487Z,19.60
2018-06-03T19:46:57.602Z,20.93
2018-06-03T19:52:01.429Z,21.00
2018-06-03T19:57:05.650Z,21.67
2018-06-03T20:02:09.511Z,21.97
2018-06-03T20:07:13.345Z,21.83
2018-06-03T20:12:17.249Z,22.87
2018-06-03T20:17:21.114Z,22.17
2018-06-03T20:22:25.372Z,23.13
2018-06-03T20:27:29.870Z,23.50
2018-06-03T20:32:33.713Z,23.47
2018-06-03T20:37:37.560Z,23.70
2018-06-03T20:42:41.603Z,23.30
2018-06-03T20:47:45.401Z,23.30
2018-06-03T20:52:49.209Z,24.53
2018-06-03T20:57:53.254Z,24.37
2018-06-03T21:02:57.076Z,23.70
2018-06-03T21:08:01.115Z,24.97
2018-06-03T21:13:04.921Z,24.67
2018-06-03T21:18:08.970Z,24.67
2018-06-03T21:23:12.792Z,24.60
2018-06-03T21:28:16.871Z,24.03
2018-06-03T21:33:21.096Z,23.57
2018-06-03T21:38:25.145Z,23.77
2018-06-03T21:43:29.208Z,24.90
2018-06-03T21:48:33.262Z,23.50
2018-06-03T21:53:37.316Z,24.67
2018-06-03T21:58:41.141Z,24.15
2018-06-03T22:03:44.970Z,23.90
2018-06-03T22:08:49.046Z,24.23
2018-06-03T22:13:53.110Z,23.07
2018-06-03T22:18:56.922Z,22.57
2018-06-03T22:24:00.708Z,22.83
2018-06-03T22:29:04.541Z,21.40
2018-06-03T22:34:08.386Z,21.73
2018-06-03T22:39:12.426Z,20.87
2018-06-03T22:44:16.245Z,21.10
2018-06-03T22:49:20.086Z,21.80
2018-06-03T22:54:24.149Z,22.03
2018-06-03T22:59:27.949Z,22.80
2018-06-03T23:04:31.990Z,21.27
2018-06-03T23:09:36.057Z,22.47
2018-06-03T23:14:39.868Z,22.60
2018-06-03T23:19:43.669Z,20.23
2018-06-03T23:24:47.471Z,21.03
2018-06-03T23:29:51.365Z,21.03
2018-06-03T23:34:55.273Z,21.80
2018-06-03T23:39:59.090Z,22.33
2018-06-03T23:45:02.966Z,21.23
2018-06-03T23:50:08.022Z,21.03
2018-06-03T23:55:11.873Z,21.33
